createdAt,value
2019-05-01T00:00:19.263Z,1005.99
2019-05-01T00:01:19.252Z,1005.99
2019-05-01T00:02:19.254Z,1005.97
2019-05-01T00:03:19.228Z,1005.99
2019-05-01T00:04:19.220Z,1005.98
2019-05-01T00:05:24.244Z,1005.96
2019-05-01T00:06:19.194Z,1006.00
2019-05-01T00:07:19.196Z,1006.00
2019-05-01T00:08:19.175Z,1006.00
2019-05-01T00:09:19.162Z,1005.98
2019-05-01T00:10:19.148Z,1005.96
2019-05-01T00:11:19.150Z,1005.98
2019-05-01T00:12:19.136Z,1005.96
2019-05-01T00:13:19.127Z,1005.90
2019-05-01T00:14:19.115Z,1005.96
2019-05-01T00:15:19.093Z,1005.96
2019-05-01T00:16:24.116Z,1005.99
2019-05-01T00:17:19.106Z,1005.93
2019-05-01T00:18:19.073Z,1005.93
2019-05-01T00:19:19.048Z,1005.90
2019-05-01T00:20:19.041Z,1005.86
2019-05-01T00:21:19.024Z,1005.81
2019-05-01T00:22:19.032Z,1005.79
2019-05-01T00:23:19.007Z,1005.79
2019-05-01T00:24:18.991Z,1005.73
2019-05-01T00:25:18.982Z,1005.81
2019-05-01T00:26:18.968Z,1005.76
2019-05-01T00:27:23.994Z,1005.76
2019-05-01T00:28:18.947Z,1005.79
2019-05-01T00:29:18.933Z,1005.78
2019-05-01T00:30:29.337Z,1005.79
2019-05-01T00:31:19.962Z,1005.83
2019-05-01T00:32:18.915Z,1005.77
2019-05-01T00:33:18.888Z,1005.79
2019-05-01T00:34:18.879Z,1005.81
2019-05-01T00:35:18.866Z,1005.78
2019-05-01T00:36:18.864Z,1005.81
2019-05-01T00:37:18.859Z,1005.83
2019-05-01T00:38:23.857Z,1005.71
2019-05-01T00:39:18.821Z,1005.83
2019-05-01T00:40:18.851Z,1005.77
2019-05-01T00:41:18.797Z,1005.71
2019-05-01T00:42:18.797Z,1005.73
2019-05-01T00:43:18.775Z,1005.71
2019-05-01T00:44:18.768Z,1005.72
2019-05-01T00:45:18.752Z,1005.69
2019-05-01T00:46:18.742Z,1005.71
2019-05-01T00:47:18.747Z,1005.61
2019-05-01T00:48:18.728Z,1005.68
2019-05-01T00:49:23.736Z,1005.63
2019-05-01T00:50:18.695Z,1005.68
2019-05-01T00:51:18.684Z,1005.64
2019-05-01T00:52:18.674Z,1005.65
2019-05-01T00:53:18.676Z,1005.56
2019-05-01T00:54:18.653Z,1005.63
2019-05-01T00:55:18.639Z,1005.54
2019-05-01T00:56:18.628Z,1005.63
2019-05-01T00:57:18.618Z,1005.66
2019-05-01T00:58:18.617Z,1005.53
2019-05-01T00:59:18.611Z,1005.60
2019-05-01T01:00:23.610Z,1005.62
2019-05-01T01:01:18.571Z,1005.59
2019-05-01T01:02:18.561Z,1005.70
2019-05-01T01:03:18.563Z,1005.59
2019-05-01T01:04:18.544Z,1005.62
2019-05-01T01:05:18.529Z,1005.59
2019-05-01T01:06:18.514Z,1005.59
2019-05-01T01:07:18.503Z,1005.63
2019-05-01T01:08:18.507Z,1005.63
2019-05-01T01:09:18.492Z,1005.66
2019-05-01T01:10:18.513Z,1005.60
2019-05-01T01:11:23.487Z,1005.61
2019-05-01T01:12:18.452Z,1005.66
2019-05-01T01:13:18.466Z,1005.66
2019-05-01T01:14:18.424Z,1005.63
2019-05-01T01:15:18.421Z,1005.63
2019-05-01T01:16:18.407Z,1005.57
2019-05-01T01:17:18.398Z,1005.54
2019-05-01T01:18:18.405Z,1005.54
2019-05-01T01:19:18.370Z,1005.60
2019-05-01T01:20:18.376Z,1005.53
2019-05-01T01:21:18.350Z,1005.57
2019-05-01T01:22:23.386Z,1005.61
2019-05-01T01:23:18.345Z,1005.55
2019-05-01T01:24:18.342Z,1005.54
2019-05-01T01:25:18.324Z,1005.55
2019-05-01T01:26:18.292Z,1005.51
2019-05-01T01:27:18.283Z,1005.49
2019-05-01T01:28:18.311Z,1005.55
2019-05-01T01:29:18.280Z,1005.51
2019-05-01T01:30:18.248Z,1005.53
2019-05-01T01:31:18.232Z,1005.51
2019-05-01T01:32:18.229Z,1005.42
2019-05-01T01:33:23.274Z,1005.52
2019-05-01T01:34:18.221Z,1005.45
2019-05-01T01:35:18.194Z,1005.42
2019-05-01T01:36:18.177Z,1005.49
2019-05-01T01:37:18.184Z,1005.49
2019-05-01T01:38:18.169Z,1005.49
2019-05-01T01:39:18.141Z,1005.41
2019-05-01T01:40:18.155Z,1005.50
2019-05-01T01:41:18.121Z,1005.49
2019-05-01T01:42:18.108Z,1005.51
2019-05-01T01:43:18.115Z,1005.54
2019-05-01T01:44:23.108Z,1005.47
2019-05-01T01:45:18.107Z,1005.50
2019-05-01T01:46:18.082Z,1005.47
2019-05-01T01:47:18.064Z,1005.56
2019-05-01T01:48:18.079Z,1005.47
2019-05-01T01:49:18.037Z,1005.46
2019-05-01T01:50:18.049Z,1005.51
2019-05-01T01:51:18.017Z,1005.51
2019-05-01T01:52:17.997Z,1005.52
2019-05-01T01:53:18.021Z,1005.50
2019-05-01T01:54:17.979Z,1005.52
2019-05-01T01:55:22.987Z,1005.49
2019-05-01T01:56:17.961Z,1005.51
2019-05-01T01:57:17.984Z,1005.51
2019-05-01T01:58:17.927Z,1005.50
2019-05-01T01:59:17.934Z,1005.48
2019-05-01T02:00:17.910Z,1005.48
2019-05-01T02:01:17.905Z,1005.46
2019-05-01T02:02:17.898Z,1005.46
2019-05-01T02:03:17.873Z,1005.45
2019-05-01T02:04:17.904Z,1005.43
2019-05-01T02:05:17.858Z,1005.42
2019-05-01T02:06:22.865Z,1005.39
2019-05-01T02:07:17.832Z,1005.45
2019-05-01T02:08:17.818Z,1005.44
2019-05-01T02:09:17.836Z,1005.48
2019-05-01T02:10:17.872Z,1005.43
2019-05-01T02:11:17.787Z,1005.47
2019-05-01T02:12:17.778Z,1005.43
2019-05-01T02:13:17.760Z,1005.40
2019-05-01T02:14:17.782Z,1005.32
2019-05-01T02:15:17.755Z,1005.43
2019-05-01T02:16:17.730Z,1005.43
2019-05-01T02:17:22.747Z,1005.34
2019-05-01T02:18:17.709Z,1005.39
2019-05-01T02:19:17.770Z,1005.41
2019-05-01T02:20:17.684Z,1005.38
2019-05-01T02:21:17.671Z,1005.37
2019-05-01T02:22:17.659Z,1005.40
2019-05-01T02:23:17.652Z,1005.35
2019-05-01T02:24:17.684Z,1005.33
2019-05-01T02:25:17.662Z,1005.30
2019-05-01T02:26:17.631Z,1005.29
2019-05-01T02:27:17.604Z,1005.30
2019-05-01T02:28:22.634Z,1005.36
2019-05-01T02:29:17.593Z,1005.32
2019-05-01T02:30:17.598Z,1005.34
2019-05-01T02:31:27.386Z,1005.30
2019-05-01T02:32:18.560Z,1005.24
2019-05-01T02:33:17.543Z,1005.30
2019-05-01T02:34:17.551Z,1005.33
2019-05-01T02:35:17.522Z,1005.36
2019-05-01T02:36:17.524Z,1005.37
2019-05-01T02:37:17.487Z,1005.32
2019-05-01T02:38:17.494Z,1005.36
2019-05-01T02:39:22.566Z,1005.34
2019-05-01T02:40:17.454Z,1005.37
2019-05-01T02:41:17.466Z,1005.33
2019-05-01T02:42:17.434Z,1005.32
2019-05-01T02:43:17.431Z,1005.30
2019-05-01T02:44:17.447Z,1005.34
2019-05-01T02:45:17.410Z,1005.25
2019-05-01T02:46:17.393Z,1005.29
2019-05-01T02:47:17.404Z,1005.25
2019-05-01T02:48:17.376Z,1005.30
2019-05-01T02:49:17.365Z,1005.27
2019-05-01T02:50:22.396Z,1005.30
2019-05-01T02:51:17.331Z,1005.23
2019-05-01T02:52:17.335Z,1005.29
2019-05-01T02:53:17.340Z,1005.24
2019-05-01T02:54:17.316Z,1005.28
2019-05-01T02:55:17.316Z,1005.29
2019-05-01T02:56:17.305Z,1005.26
2019-05-01T02:57:17.273Z,1005.27
2019-05-01T02:58:17.271Z,1005.30
2019-05-01T02:59:17.423Z,1005.21
2019-05-01T03:00:17.233Z,1005.30
2019-05-01T03:01:22.284Z,1005.30
2019-05-01T03:02:17.228Z,1005.30
2019-05-01T03:03:17.222Z,1005.28
2019-05-01T03:04:17.209Z,1005.25
2019-05-01T03:05:17.225Z,1005.25
2019-05-01T03:06:17.217Z,1005.22
2019-05-01T03:07:17.170Z,1005.15
2019-05-01T03:08:17.154Z,1005.25
2019-05-01T03:09:17.134Z,1005.27
2019-05-01T03:10:17.138Z,1005.25
2019-05-01T03:11:17.126Z,1005.31
2019-05-01T03:12:22.120Z,1005.25
2019-05-01T03:13:17.102Z,1005.32
2019-05-01T03:14:17.109Z,1005.29
2019-05-01T03:15:17.088Z,1005.30
2019-05-01T03:16:17.051Z,1005.30
2019-05-01T03:17:17.086Z,1005.31
2019-05-01T03:18:17.138Z,1005.26
2019-05-01T03:19:17.041Z,1005.31
2019-05-01T03:20:17.028Z,1005.24
2019-05-01T03:21:16.997Z,1005.27
2019-05-01T03:22:16.989Z,1005.28
2019-05-01T03:23:21.998Z,1005.25
2019-05-01T03:24:16.979Z,1005.21
2019-05-01T03:25:17.139Z,1005.26
2019-05-01T03:26:16.962Z,1005.28
2019-05-01T03:27:16.949Z,1005.28
2019-05-01T03:28:16.923Z,1005.27
2019-05-01T03:29:16.906Z,1005.21
2019-05-01T03:30:16.931Z,1005.28
2019-05-01T03:31:16.901Z,1005.18
2019-05-01T03:32:19.562Z,1005.23
2019-05-01T03:33:16.867Z,1005.23
2019-05-01T03:34:21.888Z,1005.25
2019-05-01T03:35:16.883Z,1005.23
2019-05-01T03:36:16.830Z,1005.18
2019-05-01T03:37:16.822Z,1005.27
2019-05-01T03:38:16.840Z,1005.25
2019-05-01T03:39:16.796Z,1005.26
2019-05-01T03:40:16.813Z,1005.27
2019-05-01T03:41:16.788Z,1005.24
2019-05-01T03:42:16.771Z,1005.26
2019-05-01T03:43:16.775Z,1005.32
2019-05-01T03:44:16.745Z,1005.28
2019-05-01T03:45:21.771Z,1005.23
2019-05-01T03:46:16.721Z,1005.23
2019-05-01T03:47:16.732Z,1005.19
2019-05-01T03:48:16.697Z,1005.18
2019-05-01T03:49:16.715Z,1005.26
2019-05-01T03:50:16.698Z,1005.17
2019-05-01T03:51:16.672Z,1005.13
2019-05-01T03:52:16.664Z,1005.06
2019-05-01T03:53:16.649Z,1005.14
2019-05-01T03:54:16.630Z,1005.12
2019-05-01T03:55:16.663Z,1005.12
2019-05-01T03:56:21.636Z,1005.08
2019-05-01T03:57:16.607Z,1005.06
2019-05-01T03:58:16.598Z,1005.08
2019-05-01T03:59:16.589Z,1005.09
2019-05-01T04:00:16.597Z,1005.11
2019-05-01T04:01:16.570Z,1005.07
2019-05-01T04:02:32.297Z,1005.09
2019-05-01T04:03:17.532Z,1005.08
2019-05-01T04:04:16.538Z,1005.13
2019-05-01T04:05:16.513Z,1005.16
2019-05-01T04:06:16.533Z,1005.19
2019-05-01T04:07:21.522Z,1005.26
2019-05-01T04:08:16.485Z,1005.18
2019-05-01T04:09:16.474Z,1005.20
2019-05-01T04:10:16.453Z,1005.24
2019-05-01T04:11:16.485Z,1005.28
2019-05-01T04:12:16.423Z,1005.30
2019-05-01T04:13:16.435Z,1005.24
2019-05-01T04:14:16.408Z,1005.27
2019-05-01T04:15:16.396Z,1005.22
2019-05-01T04:16:16.411Z,1005.26
2019-05-01T04:17:16.378Z,1005.26
2019-05-01T04:18:21.382Z,1005.18
2019-05-01T04:19:16.411Z,1005.18
2019-05-01T04:20:16.331Z,1005.20
2019-05-01T04:21:16.380Z,1005.19
2019-05-01T04:22:16.342Z,1005.19
2019-05-01T04:23:16.309Z,1005.25
2019-05-01T04:24:16.308Z,1005.20
2019-05-01T04:25:16.317Z,1005.17
2019-05-01T04:26:16.297Z,1005.22
2019-05-01T04:27:16.270Z,1005.22
2019-05-01T04:28:16.253Z,1005.18
2019-05-01T04:29:21.258Z,1005.16
2019-05-01T04:30:16.222Z,1005.15
2019-05-01T04:31:16.237Z,1005.18
2019-05-01T04:32:16.250Z,1005.21
2019-05-01T04:33:16.196Z,1005.22
2019-05-01T04:34:16.173Z,1005.25
2019-05-01T04:35:16.170Z,1005.20
2019-05-01T04:36:16.169Z,1005.23
2019-05-01T04:37:16.143Z,1005.20
2019-05-01T04:38:16.243Z,1005.23
2019-05-01T04:39:16.132Z,1005.17
2019-05-01T04:40:21.156Z,1005.25
2019-05-01T04:41:16.114Z,1005.25
2019-05-01T04:42:16.107Z,1005.29
2019-05-01T04:43:16.082Z,1005.28
2019-05-01T04:44:16.072Z,1005.30
2019-05-01T04:45:16.050Z,1005.34
2019-05-01T04:46:16.158Z,1005.33
2019-05-01T04:47:16.040Z,1005.30
2019-05-01T04:48:16.020Z,1005.27
2019-05-01T04:49:17.993Z,1005.27
2019-05-01T04:50:15.995Z,1005.35
2019-05-01T04:51:21.201Z,1005.34
2019-05-01T04:52:15.970Z,1005.32
2019-05-01T04:53:15.974Z,1005.40
2019-05-01T04:54:15.950Z,1005.25
2019-05-01T04:55:15.939Z,1005.32
2019-05-01T04:56:15.941Z,1005.35
2019-05-01T04:57:15.925Z,1005.35
2019-05-01T04:58:15.922Z,1005.31
2019-05-01T04:59:15.906Z,1005.36
2019-05-01T05:00:15.878Z,1005.34
2019-05-01T05:01:15.878Z,1005.26
2019-05-01T05:02:20.901Z,1005.31
2019-05-01T05:03:15.846Z,1005.29
2019-05-01T05:04:15.855Z,1005.31
2019-05-01T05:05:15.834Z,1005.33
2019-05-01T05:06:15.814Z,1005.35
2019-05-01T05:07:15.813Z,1005.33
2019-05-01T05:08:15.796Z,1005.30
2019-05-01T05:09:15.801Z,1005.38
2019-05-01T05:10:15.778Z,1005.37
2019-05-01T05:11:15.756Z,1005.31
2019-05-01T05:12:15.774Z,1005.34
2019-05-01T05:13:20.765Z,1005.33
2019-05-01T05:14:15.732Z,1005.39
2019-05-01T05:15:15.753Z,1005.39
2019-05-01T05:16:15.719Z,1005.37
2019-05-01T05:17:16.115Z,1005.39
2019-05-01T05:18:15.679Z,1005.39
2019-05-01T05:19:15.665Z,1005.38
2019-05-01T05:20:15.679Z,1005.42
2019-05-01T05:21:15.640Z,1005.35
2019-05-01T05:22:16.592Z,1005.43
2019-05-01T05:23:15.616Z,1005.42
2019-05-01T05:24:20.630Z,1005.36
2019-05-01T05:25:15.597Z,1005.45
2019-05-01T05:26:15.585Z,1005.37
2019-05-01T05:27:15.584Z,1005.42
2019-05-01T05:28:15.561Z,1005.46
2019-05-01T05:29:15.550Z,1005.42
2019-05-01T05:30:15.540Z,1005.39
2019-05-01T05:31:15.531Z,1005.36
2019-05-01T05:32:15.527Z,1005.38
2019-05-01T05:33:18.441Z,1005.43
2019-05-01T05:34:18.050Z,1005.40
2019-05-01T05:35:20.507Z,1005.43
2019-05-01T05:36:15.481Z,1005.49
2019-05-01T05:37:15.475Z,1005.49
2019-05-01T05:38:15.449Z,1005.54
2019-05-01T05:39:15.437Z,1005.53
2019-05-01T05:40:15.426Z,1005.52
2019-05-01T05:41:15.416Z,1005.50
2019-05-01T05:42:15.414Z,1005.48
2019-05-01T05:43:15.390Z,1005.50
2019-05-01T05:44:15.381Z,1005.50
2019-05-01T05:45:15.370Z,1005.44
2019-05-01T05:46:20.380Z,1005.48
2019-05-01T05:47:15.359Z,1005.49
2019-05-01T05:48:15.336Z,1005.52
2019-05-01T05:49:15.324Z,1005.59
2019-05-01T05:50:15.316Z,1005.49
2019-05-01T05:51:15.303Z,1005.50
2019-05-01T05:52:15.310Z,1005.52
2019-05-01T05:53:15.287Z,1005.57
2019-05-01T05:54:15.271Z,1005.56
2019-05-01T05:55:15.257Z,1005.57
2019-05-01T05:56:15.249Z,1005.60
2019-05-01T05:57:20.278Z,1005.60
2019-05-01T05:58:15.224Z,1005.53
2019-05-01T05:59:15.211Z,1005.61
2019-05-01T06:00:15.201Z,1005.52
2019-05-01T06:01:15.189Z,1005.55
2019-05-01T06:02:15.254Z,1005.56
2019-05-01T06:03:15.178Z,1005.53
2019-05-01T06:04:15.158Z,1005.54
2019-05-01T06:05:15.146Z,1005.55
2019-05-01T06:06:15.133Z,1005.53
2019-05-01T06:07:15.120Z,1005.55
2019-05-01T06:08:20.144Z,1005.54
2019-05-01T06:09:15.653Z,1005.54
2019-05-01T06:10:18.529Z,1005.55
2019-05-01T06:11:16.085Z,1005.64
2019-05-01T06:12:15.066Z,1005.58
2019-05-01T06:13:17.876Z,1005.57
2019-05-01T06:14:16.043Z,1005.59
2019-05-01T06:15:15.036Z,1005.55
2019-05-01T06:16:16.287Z,1005.58
2019-05-01T06:17:15.014Z,1005.56
2019-05-01T06:18:15.012Z,1005.54
2019-05-01T06:19:20.006Z,1005.52
2019-05-01T06:20:14.973Z,1005.61
2019-05-01T06:21:14.964Z,1005.54
2019-05-01T06:22:14.952Z,1005.55
2019-05-01T06:23:15.776Z,1005.53
2019-05-01T06:24:15.927Z,1005.64
2019-05-01T06:25:22.638Z,1005.60
2019-05-01T06:26:15.910Z,1005.61
2019-05-01T06:27:15.105Z,1005.67
2019-05-01T06:28:14.909Z,1005.60
2019-05-01T06:29:14.873Z,1005.58
2019-05-01T06:30:19.882Z,1005.60
2019-05-01T06:31:17.721Z,1005.56
2019-05-01T06:32:15.835Z,1005.61
2019-05-01T06:33:14.846Z,1005.66
2019-05-01T06:34:14.815Z,1005.59
2019-05-01T06:35:14.803Z,1005.60
2019-05-01T06:36:14.797Z,1005.58
2019-05-01T06:37:14.779Z,1005.60
2019-05-01T06:38:14.769Z,1005.60
2019-05-01T06:39:14.772Z,1005.61
2019-05-01T06:40:18.720Z,1005.66
2019-05-01T06:41:20.756Z,1005.62
2019-05-01T06:42:16.768Z,1005.64
2019-05-01T06:43:14.712Z,1005.63
2019-05-01T06:44:14.713Z,1005.64
2019-05-01T06:45:16.858Z,1005.67
2019-05-01T06:46:14.679Z,1005.77
2019-05-01T06:47:14.670Z,1005.70
2019-05-01T06:48:17.807Z,1005.60
2019-05-01T06:49:14.656Z,1005.63
2019-05-01T06:50:14.633Z,1005.62
2019-05-01T06:51:17.870Z,1005.61
2019-05-01T06:52:19.634Z,1005.63
2019-05-01T06:53:14.609Z,1005.73
2019-05-01T06:54:16.693Z,1005.73
2019-05-01T06:55:14.584Z,1005.65
2019-05-01T06:56:14.575Z,1005.67
2019-05-01T06:57:14.554Z,1005.75
2019-05-01T06:58:14.803Z,1005.73
2019-05-01T06:59:15.546Z,1005.60
2019-05-01T07:00:14.525Z,1005.63
2019-05-01T07:01:18.878Z,1005.74
2019-05-01T07:02:16.126Z,1005.74
2019-05-01T07:03:19.519Z,1005.62
2019-05-01T07:04:14.486Z,1005.68
2019-05-01T07:05:16.369Z,1005.63
2019-05-01T07:06:14.674Z,1005.63
2019-05-01T07:07:25.040Z,1005.66
2019-05-01T07:08:24.324Z,1005.63
2019-05-01T07:09:27.317Z,1005.64
2019-05-01T07:10:15.405Z,1005.67
2019-05-01T07:11:15.507Z,1005.62
2019-05-01T07:12:14.381Z,1005.61
2019-05-01T07:13:14.385Z,1005.62
2019-05-01T07:14:19.399Z,1005.59
2019-05-01T07:15:14.347Z,1005.59
2019-05-01T07:16:14.335Z,1005.56
2019-05-01T07:17:14.833Z,1005.61
2019-05-01T07:18:14.314Z,1005.60
2019-05-01T07:19:14.319Z,1005.54
2019-05-01T07:20:16.795Z,1005.56
2019-05-01T07:21:14.285Z,1005.58
2019-05-01T07:22:14.266Z,1005.63
2019-05-01T07:23:17.309Z,1005.58
2019-05-01T07:24:14.262Z,1005.57
2019-05-01T07:25:19.254Z,1005.54
2019-05-01T07:26:14.828Z,1005.52
2019-05-01T07:27:14.209Z,1005.61
2019-05-01T07:28:14.202Z,1005.60
2019-05-01T07:29:14.205Z,1005.58
2019-05-01T07:30:15.842Z,1005.58
2019-05-01T07:31:15.165Z,1005.50
2019-05-01T07:32:15.117Z,1005.53
2019-05-01T07:33:16.561Z,1005.51
2019-05-01T07:34:16.765Z,1005.50
2019-05-01T07:35:14.127Z,1005.55
2019-05-01T07:36:19.133Z,1005.60
2019-05-01T07:37:14.091Z,1005.60
2019-05-01T07:38:14.082Z,1005.60
2019-05-01T07:39:14.742Z,1005.62
2019-05-01T07:40:14.079Z,1005.57
2019-05-01T07:41:14.046Z,1005.61
2019-05-01T07:42:14.065Z,1005.64
2019-05-01T07:43:14.034Z,1005.58
2019-05-01T07:44:14.038Z,1005.48
2019-05-01T07:45:14.015Z,1005.52
2019-05-01T07:46:18.467Z,1005.48
2019-05-01T07:47:20.020Z,1005.54
2019-05-01T07:48:13.963Z,1005.52
2019-05-01T07:49:17.645Z,1005.54
2019-05-01T07:50:13.954Z,1005.57
2019-05-01T07:51:13.932Z,1005.53
2019-05-01T07:52:17.218Z,1005.51
2019-05-01T07:53:13.908Z,1005.56
2019-05-01T07:54:13.898Z,1005.54
2019-05-01T07:55:18.329Z,1005.58
2019-05-01T07:56:13.872Z,1005.53
2019-05-01T07:57:13.861Z,1005.47
2019-05-01T07:58:18.872Z,1005.48
2019-05-01T07:59:13.863Z,1005.51
2019-05-01T08:00:13.847Z,1005.48
2019-05-01T08:01:18.274Z,1005.42
2019-05-01T08:02:14.806Z,1005.48
2019-05-01T08:03:13.818Z,1005.49
2019-05-01T08:04:18.068Z,1005.46
2019-05-01T08:05:14.785Z,1005.45
2019-05-01T08:06:16.371Z,1005.53
2019-05-01T08:07:14.744Z,1005.54
2019-05-01T08:08:13.734Z,1005.53
2019-05-01T08:09:18.744Z,1005.55
2019-05-01T08:10:13.745Z,1005.53
2019-05-01T08:11:13.705Z,1005.62
2019-05-01T08:12:14.473Z,1005.53
2019-05-01T08:13:13.677Z,1005.49
2019-05-01T08:14:16.680Z,1005.51
2019-05-01T08:15:13.671Z,1005.53
2019-05-01T08:16:13.645Z,1005.58
2019-05-01T08:17:18.044Z,1005.53
2019-05-01T08:18:14.618Z,1005.53
2019-05-01T08:19:13.608Z,1005.63
2019-05-01T08:20:18.633Z,1005.54
2019-05-01T08:21:13.588Z,1005.45
2019-05-01T08:22:13.578Z,1005.56
2019-05-01T08:23:13.734Z,1005.54
2019-05-01T08:24:13.554Z,1005.51
2019-05-01T08:25:13.617Z,1005.47
2019-05-01T08:26:13.542Z,1005.55
2019-05-01T08:27:15.660Z,1005.55
2019-05-01T08:28:14.507Z,1005.48
2019-05-01T08:29:13.511Z,1005.56
2019-05-01T08:30:17.467Z,1005.48
2019-05-01T08:31:23.053Z,1005.51
2019-05-01T08:32:14.465Z,1005.53
2019-05-01T08:33:14.775Z,1005.54
2019-05-01T08:34:13.442Z,1005.52
2019-05-01T08:35:13.426Z,1005.49
2019-05-01T08:36:13.581Z,1005.47
2019-05-01T08:37:13.412Z,1005.50
2019-05-01T08:38:13.397Z,1005.54
2019-05-01T08:39:13.979Z,1005.56
2019-05-01T08:40:15.967Z,1005.57
2019-05-01T08:41:14.378Z,1005.49
2019-05-01T08:42:18.370Z,1005.51
2019-05-01T08:43:13.778Z,1005.49
2019-05-01T08:44:13.339Z,1005.47
2019-05-01T08:45:13.315Z,1005.43
2019-05-01T08:46:16.422Z,1005.47
2019-05-01T08:47:13.291Z,1005.44
2019-05-01T08:48:13.315Z,1005.45
2019-05-01T08:49:13.272Z,1005.39
2019-05-01T08:50:13.268Z,1005.40
2019-05-01T08:51:13.265Z,1005.49
2019-05-01T08:52:14.047Z,1005.45
2019-05-01T08:53:22.019Z,1005.44
2019-05-01T08:54:13.244Z,1005.41
2019-05-01T08:55:13.206Z,1005.50
2019-05-01T08:56:16.971Z,1005.43
2019-05-01T08:57:14.177Z,1005.45
2019-05-01T08:58:14.007Z,1005.53
2019-05-01T08:59:13.162Z,1005.45
2019-05-01T09:00:13.145Z,1005.43
2019-05-01T09:01:15.043Z,1005.44
2019-05-01T09:02:13.156Z,1005.46
2019-05-01T09:03:13.701Z,1005.44
2019-05-01T09:04:18.857Z,1005.39
2019-05-01T09:05:27.715Z,1005.42
2019-05-01T09:06:14.091Z,1005.35
2019-05-01T09:07:14.684Z,1005.37
2019-05-01T09:08:14.053Z,1005.40
2019-05-01T09:09:13.043Z,1005.51
2019-05-01T09:10:17.007Z,1005.46
2019-05-01T09:11:14.048Z,1005.49
2019-05-01T09:12:13.602Z,1005.40
2019-05-01T09:13:13.004Z,1005.42
2019-05-01T09:14:12.985Z,1005.35
2019-05-01T09:15:17.995Z,1005.35
2019-05-01T09:16:12.975Z,1005.37
2019-05-01T09:17:12.953Z,1005.33
2019-05-01T09:18:12.940Z,1005.37
2019-05-01T09:19:12.930Z,1005.51
2019-05-01T09:20:12.922Z,1005.37
2019-05-01T09:21:12.920Z,1005.28
2019-05-01T09:22:12.896Z,1005.35
2019-05-01T09:23:14.444Z,1005.32
2019-05-01T09:24:12.890Z,1005.22
2019-05-01T09:25:12.869Z,1005.31
2019-05-01T09:26:17.893Z,1005.26
2019-05-01T09:27:12.840Z,1005.26
2019-05-01T09:28:12.829Z,1005.28
2019-05-01T09:29:16.106Z,1005.24
2019-05-01T09:30:12.810Z,1005.26
2019-05-01T09:31:12.804Z,1005.25
2019-05-01T09:32:12.801Z,1005.24
2019-05-01T09:33:12.775Z,1005.25
2019-05-01T09:34:13.965Z,1005.25
2019-05-01T09:35:15.867Z,1005.27
2019-05-01T09:36:12.739Z,1005.16
2019-05-01T09:37:17.760Z,1005.14
2019-05-01T09:38:12.715Z,1005.15
2019-05-01T09:39:12.707Z,1005.21
2019-05-01T09:40:12.702Z,1005.19
2019-05-01T09:41:12.696Z,1005.17
2019-05-01T09:42:12.682Z,1005.22
2019-05-01T09:43:12.660Z,1005.26
2019-05-01T09:44:12.650Z,1005.21
2019-05-01T09:45:12.641Z,1005.16
2019-05-01T09:46:12.625Z,1005.15
2019-05-01T09:47:12.632Z,1005.12
2019-05-01T09:48:17.630Z,1005.11
2019-05-01T09:49:14.329Z,1005.13
2019-05-01T09:50:13.579Z,1005.11
2019-05-01T09:51:12.569Z,1005.12
2019-05-01T09:52:12.575Z,1005.07
2019-05-01T09:53:12.559Z,1005.04
2019-05-01T09:54:12.535Z,1005.05
2019-05-01T09:55:12.526Z,1005.04
2019-05-01T09:56:12.521Z,1005.05
2019-05-01T09:57:12.522Z,1005.00
2019-05-01T09:58:12.493Z,1005.03
2019-05-01T09:59:19.079Z,1005.04
2019-05-01T10:00:12.471Z,1005.04
2019-05-01T10:01:12.457Z,1005.03
2019-05-01T10:02:12.458Z,1005.11
2019-05-01T10:03:13.081Z,1005.08
2019-05-01T10:04:12.423Z,1005.03
2019-05-01T10:05:12.413Z,1004.98
2019-05-01T10:06:12.808Z,1004.99
2019-05-01T10:07:12.411Z,1005.00
2019-05-01T10:08:12.426Z,1005.09
2019-05-01T10:09:16.908Z,1005.11
2019-05-01T10:10:18.377Z,1005.07
2019-05-01T10:11:12.350Z,1004.88
2019-05-01T10:12:13.174Z,1004.94
2019-05-01T10:13:12.327Z,1004.85
2019-05-01T10:14:12.310Z,1004.93
2019-05-01T10:15:12.327Z,1004.95
2019-05-01T10:16:12.294Z,1005.01
2019-05-01T10:17:13.567Z,1004.93
2019-05-01T10:18:12.278Z,1004.78
2019-05-01T10:19:12.255Z,1004.90
2019-05-01T10:20:12.242Z,1004.89
2019-05-01T10:21:17.254Z,1004.85
2019-05-01T10:22:12.220Z,1004.89
2019-05-01T10:23:13.206Z,1004.87
2019-05-01T10:24:12.200Z,1004.79
2019-05-01T10:25:13.451Z,1004.79
2019-05-01T10:26:12.176Z,1004.80
2019-05-01T10:27:12.164Z,1004.79
2019-05-01T10:28:15.941Z,1004.71
2019-05-01T10:29:13.146Z,1004.71
2019-05-01T10:30:12.132Z,1004.73
2019-05-01T10:31:13.189Z,1004.74
2019-05-01T10:32:21.509Z,1004.66
2019-05-01T10:33:13.097Z,1004.69
2019-05-01T10:34:12.086Z,1004.70
2019-05-01T10:35:14.140Z,1004.72
2019-05-01T10:36:18.626Z,1004.69
2019-05-01T10:37:13.073Z,1004.68
2019-05-01T10:38:12.066Z,1004.65
2019-05-01T10:39:16.086Z,1004.64
2019-05-01T10:40:13.041Z,1004.51
2019-05-01T10:41:12.009Z,1004.59
2019-05-01T10:42:11.999Z,1004.58
2019-05-01T10:43:17.025Z,1004.59
2019-05-01T10:44:11.976Z,1004.49
2019-05-01T10:45:11.969Z,1004.54
2019-05-01T10:46:11.965Z,1004.40
2019-05-01T10:47:11.949Z,1004.48
2019-05-01T10:48:11.943Z,1004.45
2019-05-01T10:49:11.917Z,1004.41
2019-05-01T10:50:11.905Z,1004.41
2019-05-01T10:51:11.895Z,1004.46
2019-05-01T10:52:14.280Z,1004.46
2019-05-01T10:53:11.885Z,1004.43
2019-05-01T10:54:16.896Z,1004.41
2019-05-01T10:55:11.848Z,1004.38
2019-05-01T10:56:11.838Z,1004.39
2019-05-01T10:57:13.024Z,1004.32
2019-05-01T10:58:12.670Z,1004.31
2019-05-01T10:59:12.806Z,1004.32
2019-05-01T11:00:11.791Z,1004.29
2019-05-01T11:01:11.811Z,1004.29
2019-05-01T11:02:11.778Z,1004.25
2019-05-01T11:03:11.776Z,1004.35
2019-05-01T11:04:11.759Z,1004.34
2019-05-01T11:05:16.758Z,1004.28
2019-05-01T11:06:11.726Z,1004.29
2019-05-01T11:07:11.715Z,1004.28
2019-05-01T11:08:11.717Z,1004.25
2019-05-01T11:09:11.702Z,1004.26
2019-05-01T11:10:11.687Z,1004.29
2019-05-01T11:11:11.668Z,1004.18
2019-05-01T11:12:11.661Z,1004.26
2019-05-01T11:13:11.656Z,1004.34
2019-05-01T11:14:11.635Z,1004.28
2019-05-01T11:15:11.629Z,1004.30
2019-05-01T11:16:16.646Z,1004.29
2019-05-01T11:17:11.603Z,1004.25
2019-05-01T11:18:11.603Z,1004.12
2019-05-01T11:19:11.580Z,1004.17
2019-05-01T11:20:11.567Z,1004.30
2019-05-01T11:21:11.560Z,1004.23
2019-05-01T11:22:11.545Z,1004.05
2019-05-01T11:23:11.546Z,1004.11
2019-05-01T11:24:11.523Z,1004.01
2019-05-01T11:25:11.515Z,1004.07
2019-05-01T11:26:11.503Z,1004.12
2019-05-01T11:27:16.534Z,1004.10
2019-05-01T11:28:11.491Z,1004.16
2019-05-01T11:29:11.470Z,1004.07
2019-05-01T11:30:11.457Z,1004.14
2019-05-01T11:31:11.452Z,1004.17
2019-05-01T11:32:11.435Z,1004.13
2019-05-01T11:33:11.440Z,1004.03
2019-05-01T11:34:11.413Z,1004.05
2019-05-01T11:35:11.403Z,1004.00
2019-05-01T11:36:11.392Z,1004.06
2019-05-01T11:37:11.395Z,1004.01
2019-05-01T11:38:16.416Z,1003.94
2019-05-01T11:39:11.357Z,1004.08
2019-05-01T11:40:11.348Z,1004.09
2019-05-01T11:41:11.338Z,1004.08
2019-05-01T11:42:11.326Z,1003.98
2019-05-01T11:43:11.319Z,1003.99
2019-05-01T11:44:11.327Z,1004.00
2019-05-01T11:45:11.361Z,1004.04
2019-05-01T11:46:11.305Z,1003.90
2019-05-01T11:47:11.271Z,1003.94
2019-05-01T11:48:11.267Z,1003.96
2019-05-01T11:49:16.301Z,1003.87
2019-05-01T11:50:11.239Z,1003.99
2019-05-01T11:51:11.232Z,1004.02
2019-05-01T11:52:11.216Z,1004.00
2019-05-01T11:53:11.204Z,1004.06
2019-05-01T11:54:11.313Z,1004.15
2019-05-01T11:55:11.193Z,1004.20
2019-05-01T11:56:11.207Z,1004.12
2019-05-01T11:57:11.176Z,1004.20
2019-05-01T11:58:11.145Z,1004.11
2019-05-01T11:59:12.388Z,1004.11
2019-05-01T12:00:16.154Z,1004.08
2019-05-01T12:01:11.189Z,1004.14
2019-05-01T12:02:11.100Z,1004.19
2019-05-01T12:03:11.088Z,1004.17
2019-05-01T12:04:11.100Z,1004.15
2019-05-01T12:05:11.067Z,1004.13